createdAt,value
2023-04-18T00:00:36.964Z,101720.38
2023-04-18T00:03:04.663Z,101722.88
2023-04-18T00:05:31.965Z,101719.25
2023-04-18T00:07:58.767Z,101724.47
2023-04-18T00:10:25.859Z,101724.53
2023-04-18T00:12:52.633Z,101721.91
2023-04-18T00:15:19.419Z,101724.69
2023-04-18T00:17:45.957Z,101719.41
2023-04-18T00:20:12.939Z,101725.50
2023-04-18T00:22:43.058Z,101720.22
2023-04-18T00:25:11.132Z,101728.19
2023-04-18T00:27:41.628Z,101723.88
2023-04-18T00:30:09.752Z,101723.00
2023-04-18T00:32:38.185Z,101722.09
2023-04-18T00:35:05.393Z,101713.22
2023-04-18T00:37:31.985Z,101724.47
2023-04-18T00:39:59.796Z,101726.03
2023-04-18T00:42:28.897Z,101725.97
2023-04-18T00:44:55.583Z,101734.69
2023-04-18T00:47:22.847Z,101721.34
2023-04-18T00:49:51.322Z,101722.16
2023-04-18T00:52:18.802Z,101726.50
2023-04-18T00:54:48.041Z,101720.38
2023-04-18T00:57:15.137Z,101730.81
2023-04-18T00:59:42.663Z,101722.91
2023-04-18T01:02:09.606Z,101720.31
2023-04-18T01:04:37.341Z,101725.59
2023-04-18T01:07:04.902Z,101723.78
2023-04-18T01:09:31.808Z,101717.47
2023-04-18T01:11:58.394Z,101727.94
2023-04-18T01:14:24.945Z,101716.44
2023-04-18T01:16:51.784Z,101723.53
2023-04-18T01:19:19.300Z,101721.78
2023-04-18T01:21:46.041Z,101721.66
2023-04-18T01:24:17.688Z,101726.88
2023-04-18T01:26:49.696Z,101720.69
2023-04-18T01:29:16.523Z,101721.53
2023-04-18T01:31:44.216Z,101717.09
2023-04-18T01:34:11.689Z,101719.72
2023-04-18T01:36:41.155Z,101724.94
2023-04-18T01:39:11.131Z,101716.97
2023-04-18T01:41:38.096Z,101719.66
2023-04-18T01:44:05.117Z,101715.31
2023-04-18T01:46:32.270Z,101717.94
2023-04-18T01:49:01.160Z,101716.13
2023-04-18T01:51:28.009Z,101718.75
2023-04-18T01:53:55.259Z,101711.81
2023-04-18T01:56:22.251Z,101713.63
2023-04-18T01:58:48.780Z,101706.56
2023-04-18T02:01:15.777Z,101711.81
2023-04-18T02:03:43.895Z,101709.06
2023-04-18T02:06:13.294Z,101704.72
2023-04-18T02:08:41.314Z,101711.69
2023-04-18T02:11:08.072Z,101698.47
2023-04-18T02:13:34.914Z,101695.78
2023-04-18T02:16:11.409Z,101693.97
2023-04-18T02:18:40.119Z,101701.81
2023-04-18T02:21:07.249Z,101697.28
2023-04-18T02:23:33.747Z,101703.47
2023-04-18T02:26:00.705Z,101703.63
2023-04-18T02:28:28.804Z,101705.41
2023-04-18T02:30:56.132Z,101697.56
2023-04-18T02:33:23.931Z,101694.13
2023-04-18T02:35:51.968Z,101706.44
2023-04-18T02:38:18.568Z,101701.16
2023-04-18T02:40:46.812Z,101700.25
2023-04-18T02:43:13.601Z,101704.66
2023-04-18T02:45:40.539Z,101696.75
2023-04-18T02:48:08.523Z,101694.13
2023-04-18T02:50:36.091Z,101701.94
2023-04-18T02:53:02.923Z,101705.47
2023-04-18T02:55:45.085Z,101703.81
2023-04-18T02:58:12.113Z,101702.06
2023-04-18T03:00:58.185Z,101708.22
2023-04-18T03:03:43.303Z,101706.44
2023-04-18T03:06:28.960Z,101708.09
2023-04-18T03:08:56.644Z,101706.31
2023-04-18T03:11:24.462Z,101711.59
2023-04-18T03:13:51.380Z,101715.03
2023-04-18T03:16:18.983Z,101714.22
2023-04-18T03:18:45.739Z,101707.19
2023-04-18T03:21:12.819Z,101705.41
2023-04-18T03:23:39.750Z,101707.13
2023-04-18T03:26:08.161Z,101712.41
2023-04-18T03:28:37.714Z,101714.22
2023-04-18T03:31:05.111Z,101713.31
2023-04-18T03:33:34.692Z,101717.72
2023-04-18T03:36:09.091Z,101713.38
2023-04-18T03:38:35.946Z,101717.81
2023-04-18T03:41:03.025Z,101716.97
2023-04-18T03:43:33.509Z,101717.88
2023-04-18T03:46:00.736Z,101719.66
2023-04-18T03:48:28.960Z,101717.94
2023-04-18T03:50:59.084Z,101718.75
2023-04-18T03:53:25.987Z,101719.66
2023-04-18T03:55:54.794Z,101721.38
2023-04-18T03:58:25.248Z,101715.19
2023-04-18T04:00:53.168Z,101723.09
2023-04-18T04:03:20.077Z,101714.28
2023-04-18T04:05:46.862Z,101709.06
2023-04-18T04:08:16.464Z,101718.69
2023-04-18T04:10:44.667Z,101722.13
2023-04-18T04:13:11.466Z,101728.13
2023-04-18T04:15:39.931Z,101729.06
2023-04-18T04:18:09.336Z,101728.19
2023-04-18T04:20:39.668Z,101739.69
2023-04-18T04:23:13.516Z,101732.66
2023-04-18T04:25:45.732Z,101739.69
2023-04-18T04:28:31.922Z,101745.88
2023-04-18T04:31:03.469Z,101747.53
2023-04-18T04:33:33.241Z,101743.25
2023-04-18T04:36:03.365Z,101751.22
2023-04-18T04:38:33.027Z,101760.84
2023-04-18T04:41:00.272Z,101757.31
2023-04-18T04:43:28.981Z,101760.78
2023-04-18T04:45:57.807Z,101764.25
2023-04-18T04:48:25.091Z,101762.44
2023-04-18T04:50:59.035Z,101769.53
2023-04-18T04:53:32.458Z,101769.59
2023-04-18T04:56:00.816Z,101768.72
2023-04-18T04:58:28.152Z,101765.22
2023-04-18T05:01:24.284Z,101766.16
2023-04-18T05:03:52.546Z,101770.63
2023-04-18T05:06:20.923Z,101767.06
2023-04-18T05:08:48.235Z,101774.06
2023-04-18T05:11:15.792Z,101775.03
2023-04-18T05:13:42.629Z,101774.22
2023-04-18T05:16:09.695Z,101782.94
2023-04-18T05:18:39.530Z,101776.69
2023-04-18T05:21:06.227Z,101777.59
2023-04-18T05:23:35.181Z,101776.56
2023-04-18T05:26:02.081Z,101779.28
2023-04-18T05:28:28.751Z,101788.06
2023-04-18T05:31:05.729Z,101784.53
2023-04-18T05:33:32.508Z,101791.63
2023-04-18T05:35:59.753Z,101790.84
2023-04-18T05:38:26.538Z,101791.91
2023-04-18T05:40:55.913Z,101795.66
2023-04-18T05:43:23.340Z,101785.41
2023-04-18T05:45:52.748Z,101791.66
2023-04-18T05:48:19.639Z,101792.84
2023-04-18T05:50:46.429Z,101786.53
2023-04-18T05:53:13.395Z,101796.41
2023-04-18T05:55:41.140Z,101799.78
2023-04-18T05:58:07.876Z,101795.94
2023-04-18T06:00:36.145Z,101803.53
2023-04-18T06:03:03.479Z,101805.72
2023-04-18T06:05:30.773Z,101809.56
2023-04-18T06:07:57.779Z,101811.97
2023-04-18T06:10:24.450Z,101814.56
2023-04-18T06:12:51.033Z,101804.75
2023-04-18T06:15:17.763Z,101817.03
2023-04-18T06:17:44.927Z,101823.97
2023-04-18T06:20:13.373Z,101824.59
2023-04-18T06:22:40.852Z,101818.19
2023-04-18T06:25:10.025Z,101816.56
2023-04-18T06:27:38.072Z,101824.75
2023-04-18T06:30:08.427Z,101821.44
2023-04-18T06:32:35.439Z,101820.50
2023-04-18T06:35:02.415Z,101830.56
2023-04-18T06:37:29.352Z,101824.38
2023-04-18T06:39:56.260Z,101830.88
2023-04-18T06:42:23.073Z,101829.25
2023-04-18T06:44:50.099Z,101823.19
2023-04-18T06:47:18.659Z,101833.75
2023-04-18T06:49:45.543Z,101834.00
2023-04-18T06:52:12.170Z,101838.59
2023-04-18T06:54:38.810Z,101840.59
2023-04-18T06:57:05.543Z,101841.59
2023-04-18T06:59:32.398Z,101847.03
2023-04-18T07:01:59.058Z,101847.34
2023-04-18T07:04:26.235Z,101853.94
2023-04-18T07:06:53.281Z,101848.03
2023-04-18T07:09:20.875Z,101844.78
2023-04-18T07:11:52.471Z,101849.00
2023-04-18T07:14:23.614Z,101855.25
2023-04-18T07:16:50.957Z,101860.56
2023-04-18T07:19:17.937Z,101859.97
2023-04-18T07:21:46.329Z,101855.81
2023-04-18T07:24:13.338Z,101857.59
2023-04-18T07:26:41.182Z,101863.19
2023-04-18T07:29:08.199Z,101866.94
2023-04-18T07:31:35.147Z,101853.72
2023-04-18T07:34:02.113Z,101862.69
2023-04-18T07:36:29.031Z,101848.81
2023-04-18T07:38:55.589Z,101852.59
2023-04-18T07:41:22.343Z,101858.16
2023-04-18T07:43:49.027Z,101853.91
2023-04-18T07:46:15.907Z,101854.88
2023-04-18T07:48:42.478Z,101851.50
2023-04-18T07:51:09.046Z,101848.31
2023-04-18T07:53:35.977Z,101861.72
2023-04-18T07:56:02.872Z,101856.84
2023-04-18T07:58:30.566Z,101855.94
2023-04-18T08:00:57.679Z,101861.28
2023-04-18T08:03:24.596Z,101854.31
2023-04-18T08:05:51.983Z,101854.53
2023-04-18T08:08:18.767Z,101859.03
2023-04-18T08:10:45.431Z,101857.22
2023-04-18T08:13:14.750Z,101859.13
2023-04-18T08:15:41.565Z,101851.41
2023-04-18T08:18:08.857Z,101857.72
2023-04-18T08:20:37.147Z,101855.31
2023-04-18T08:23:08.625Z,101857.22
2023-04-18T08:25:36.629Z,101865.31
2023-04-18T08:28:04.322Z,101860.91
2023-04-18T08:30:31.495Z,101861.19
2023-04-18T08:33:00.499Z,101868.25
2023-04-18T08:35:27.305Z,101869.28
2023-04-18T08:37:53.906Z,101880.06
2023-04-18T08:40:21.036Z,101870.56
2023-04-18T08:42:48.283Z,101876.53
2023-04-18T08:45:15.397Z,101878.94
2023-04-18T08:47:42.632Z,101868.75
2023-04-18T08:50:11.360Z,101867.31
2023-04-18T08:52:39.892Z,101871.97
2023-04-18T08:55:07.545Z,101867.56
2023-04-18T08:57:36.399Z,101877.28
2023-04-18T09:00:10.561Z,101874.06
2023-04-18T09:02:43.057Z,101872.00
2023-04-18T09:05:15.008Z,101876.81
2023-04-18T09:07:42.719Z,101878.97
2023-04-18T09:10:10.151Z,101879.38
2023-04-18T09:12:50.673Z,101883.84
2023-04-18T09:15:23.342Z,101888.38
2023-04-18T09:17:56.599Z,101887.41
2023-04-18T09:20:44.024Z,101894.47
2023-04-18T09:23:15.009Z,101887.59
2023-04-18T09:25:45.005Z,101888.53
2023-04-18T09:28:33.481Z,101889.59
2023-04-18T09:31:14.551Z,101891.16
2023-04-18T09:33:52.812Z,101886.63
2023-04-18T09:36:29.212Z,101891.06
2023-04-18T09:38:57.222Z,101892.22
2023-04-18T09:41:38.511Z,101885.19
2023-04-18T09:44:15.520Z,101890.56
2023-04-18T09:46:46.576Z,101882.81
2023-04-18T09:49:14.041Z,101879.66
2023-04-18T09:51:42.141Z,101881.53
2023-04-18T09:54:17.005Z,101885.13
2023-04-18T09:56:45.904Z,101885.28
2023-04-18T09:59:17.735Z,101888.84
2023-04-18T10:01:48.493Z,101893.28
2023-04-18T10:04:17.039Z,101886.34
2023-04-18T10:06:46.536Z,101894.34
2023-04-18T10:09:14.703Z,101891.47
2023-04-18T10:11:41.875Z,101888.63
2023-04-18T10:14:13.336Z,101886.03
2023-04-18T10:16:40.901Z,101891.44
2023-04-18T10:19:30.198Z,101885.13
2023-04-18T10:21:59.157Z,101885.19
2023-04-18T10:24:53.568Z,101883.47
2023-04-18T10:27:54.839Z,101891.47
2023-04-18T10:30:41.323Z,101890.50
2023-04-18T10:33:40.960Z,101894.13
2023-04-18T10:36:08.972Z,101894.03
2023-04-18T10:38:45.480Z,101893.69
2023-04-18T10:41:28.995Z,101886.47
2023-04-18T10:44:08.905Z,101890.88
2023-04-18T10:46:40.116Z,101888.34
2023-04-18T10:52:06.039Z,101891.84
2023-04-18T10:54:37.062Z,101895.34
2023-04-18T10:57:05.707Z,101886.78
2023-04-18T10:59:34.829Z,101879.06
2023-04-18T11:02:30.280Z,101883.88
2023-04-18T11:05:04.547Z,101888.53
2023-04-18T11:07:37.149Z,101889.38
2023-04-18T11:10:05.716Z,101891.69
2023-04-18T11:12:34.865Z,101886.91
2023-04-18T11:15:09.454Z,101886.69
2023-04-18T11:17:36.141Z,101885.75
2023-04-18T11:20:09.167Z,101884.72
2023-04-18T11:22:53.373Z,101885.63
2023-04-18T11:25:23.678Z,101883.06
2023-04-18T11:27:57.508Z,101876.75
2023-04-18T11:30:24.157Z,101875.22
2023-04-18T11:32:51.749Z,101873.56
2023-04-18T11:35:19.656Z,101877.38
2023-04-18T11:37:46.162Z,101874.97
2023-04-18T11:40:13.847Z,101886.19
2023-04-18T11:42:41.817Z,101879.50
2023-04-18T11:45:15.506Z,101876.38
2023-04-18T11:47:43.360Z,101879.34
2023-04-18T11:50:12.810Z,101877.00
2023-04-18T11:52:41.422Z,101864.84
2023-04-18T11:55:14.649Z,101870.44
2023-04-18T11:57:41.999Z,101875.91
2023-04-18T12:00:10.762Z,101863.72
2023-04-18T12:02:45.299Z,101865.56
2023-04-18T12:05:14.971Z,101863.75
2023-04-18T12:07:44.639Z,101870.09
2023-04-18T12:10:19.986Z,101860.44
2023-04-18T12:13:00.190Z,101852.66
2023-04-18T12:15:28.768Z,101852.59
2023-04-18T12:18:16.669Z,101857.38
2023-04-18T12:20:53.998Z,101845.28
2023-04-18T12:23:37.195Z,101844.56
2023-04-18T12:26:05.821Z,101842.56
2023-04-18T12:28:33.606Z,101839.88
2023-04-18T12:31:00.429Z,101842.44
2023-04-18T12:33:27.539Z,101843.59
2023-04-18T12:35:54.636Z,101843.63
2023-04-18T12:38:22.510Z,101842.59
2023-04-18T12:40:51.043Z,101841.53
2023-04-18T12:43:18.168Z,101838.06
2023-04-18T12:45:46.194Z,101844.44
2023-04-18T12:48:13.147Z,101831.88
2023-04-18T12:50:39.613Z,101842.16
2023-04-18T12:53:06.236Z,101851.09
2023-04-18T12:55:32.986Z,101847.88
2023-04-18T12:57:59.903Z,101840.06
2023-04-18T13:00:29.876Z,101836.75
2023-04-18T13:02:58.034Z,101835.03
2023-04-18T13:05:29.932Z,101834.94
2023-04-18T13:14:27.324Z,101827.59
2023-04-18T13:20:51.936Z,101828.94
2023-04-18T13:23:18.342Z,101816.78
2023-04-18T13:25:45.080Z,101826.44
2023-04-18T13:28:11.516Z,101820.28
2023-04-18T13:30:38.072Z,101821.41
2023-04-18T13:33:04.527Z,101813.47
2023-04-18T13:35:31.479Z,101828.66
2023-04-18T13:37:58.372Z,101817.91
2023-04-18T13:40:25.233Z,101823.31
2023-04-18T13:42:52.458Z,101814.38
2023-04-18T13:45:19.411Z,101820.66
2023-04-18T13:47:46.166Z,101809.16
2023-04-18T13:50:13.246Z,101816.34
2023-04-18T13:52:39.992Z,101811.91
2023-04-18T13:55:07.120Z,101816.97
2023-04-18T13:57:34.731Z,101817.63
2023-04-18T14:00:01.740Z,101812.19
2023-04-18T14:02:38.647Z,101813.00
2023-04-18T14:05:06.887Z,101812.91
2023-04-18T14:07:34.226Z,101810.09
2023-04-18T14:10:00.917Z,101799.25
2023-04-18T14:12:27.534Z,101805.22
2023-04-18T14:14:53.981Z,101805.13
2023-04-18T14:17:20.518Z,101805.94
2023-04-18T14:19:47.933Z,101805.03
2023-04-18T14:22:14.576Z,101812.84
2023-04-18T14:24:41.429Z,101808.22
2023-04-18T14:27:08.061Z,101805.41
2023-04-18T14:29:34.798Z,101800.91
2023-04-18T14:32:01.437Z,101797.50
2023-04-18T14:34:28.015Z,101796.81
2023-04-18T14:36:54.738Z,101798.00
2023-04-18T14:39:21.623Z,101793.84
2023-04-18T14:41:48.278Z,101797.56
2023-04-18T14:44:14.875Z,101801.25
2023-04-18T14:46:42.442Z,101796.84
2023-04-18T14:49:09.010Z,101802.91
2023-04-18T14:51:35.649Z,101793.81
2023-04-18T14:54:02.232Z,101798.88
2023-04-18T14:56:28.818Z,101796.03
2023-04-18T14:58:55.483Z,101796.75
2023-04-18T15:04:17.605Z,101789.56
2023-04-18T15:06:45.427Z,101782.59
2023-04-18T15:09:13.786Z,101778.16
2023-04-18T15:11:40.372Z,101775.50
2023-04-18T15:14:07.340Z,101787.81
2023-04-18T15:16:35.447Z,101785.00
2023-04-18T15:19:02.972Z,101775.09
2023-04-18T15:21:29.916Z,101775.03
2023-04-18T15:23:57.335Z,101769.72
2023-04-18T15:26:24.206Z,101768.91
2023-04-18T15:28:53.889Z,101769.84
2023-04-18T15:31:21.746Z,101775.22
2023-04-18T15:33:48.280Z,101776.06
2023-04-18T15:36:14.791Z,101771.53
2023-04-18T15:38:42.424Z,101775.09
2023-04-18T15:41:09.996Z,101783.25
2023-04-18T15:43:36.506Z,101776.34
2023-04-18T15:46:04.118Z,101767.53
2023-04-18T15:48:34.981Z,101764.84
2023-04-18T15:51:01.617Z,101766.47
2023-04-18T15:53:28.609Z,101776.22
2023-04-18T15:55:55.731Z,101777.00
2023-04-18T15:58:23.249Z,101776.97
2023-04-18T16:00:51.301Z,101773.44
2023-04-18T16:03:17.954Z,101774.31
2023-04-18T16:05:44.636Z,101775.09
2023-04-18T16:08:11.244Z,101779.41
2023-04-18T16:10:38.047Z,101780.22
2023-04-18T16:13:06.689Z,101781.03
2023-04-18T16:15:41.450Z,101777.50
2023-04-18T16:18:08.525Z,101779.44
2023-04-18T16:20:35.834Z,101782.19
2023-04-18T16:23:02.835Z,101780.50
2023-04-18T16:25:29.333Z,101778.66
2023-04-18T16:27:57.084Z,101780.50
2023-04-18T16:30:23.571Z,101784.03
2023-04-18T16:32:50.948Z,101771.53
2023-04-18T16:35:18.003Z,101779.53
2023-04-18T16:37:44.968Z,101779.44
2023-04-18T16:40:12.659Z,101777.56
2023-04-18T16:42:41.267Z,101782.75
2023-04-18T16:45:09.200Z,101779.97
2023-04-18T16:47:36.001Z,101774.56
2023-04-18T16:50:02.603Z,101776.28
2023-04-18T16:52:29.197Z,101772.72
2023-04-18T16:54:55.939Z,101775.28
2023-04-18T16:57:22.502Z,101774.34
2023-04-18T16:59:49.041Z,101769.84
2023-04-18T17:02:15.749Z,101771.53
2023-04-18T17:04:42.807Z,101770.56
2023-04-18T17:07:09.418Z,101778.50
2023-04-18T17:09:35.917Z,101775.75
2023-04-18T17:12:02.561Z,101780.06
2023-04-18T17:14:29.164Z,101779.97
2023-04-18T17:16:56.077Z,101781.63
2023-04-18T17:19:23.029Z,101785.06
2023-04-18T17:21:50.871Z,101779.69
2023-04-18T17:24:18.694Z,101778.75
2023-04-18T17:26:45.235Z,101788.47
2023-04-18T17:29:12.956Z,101787.50
2023-04-18T17:31:39.804Z,101793.66
2023-04-18T17:34:06.452Z,101790.03
2023-04-18T17:36:35.758Z,101784.59
2023-04-18T17:39:11.634Z,101791.59
2023-04-18T17:41:40.661Z,101791.53
2023-04-18T17:44:08.285Z,101791.53
2023-04-18T17:46:34.983Z,101797.66
2023-04-18T17:49:02.772Z,101788.78
2023-04-18T17:51:29.326Z,101792.34
2023-04-18T17:53:55.841Z,101790.50
2023-04-18T17:56:22.728Z,101785.16
2023-04-18T17:58:49.878Z,101792.22
2023-04-18T18:01:21.121Z,101796.66
2023-04-18T18:03:48.715Z,101800.13
2023-04-18T18:06:15.948Z,101800.09
2023-04-18T18:08:43.240Z,101795.63
2023-04-18T18:11:11.362Z,101793.75
2023-04-18T18:13:40.812Z,101794.59
2023-04-18T18:16:08.849Z,101803.38
2023-04-18T18:18:36.368Z,101803.31
2023-04-18T18:21:03.058Z,101802.38
2023-04-18T18:23:31.967Z,101800.56
2023-04-18T18:25:58.916Z,101799.53
2023-04-18T18:28:25.634Z,101795.84
2023-04-18T18:30:52.209Z,101807.19
2023-04-18T18:33:19.011Z,101801.78
2023-04-18T18:35:45.738Z,101808.69
2023-04-18T18:38:12.237Z,101805.88
2023-04-18T18:40:38.812Z,101821.66
2023-04-18T18:43:05.579Z,101826.00
2023-04-18T18:45:32.193Z,101825.88
2023-04-18T18:47:58.860Z,101818.75
2023-04-18T18:50:25.498Z,101820.44
2023-04-18T18:52:52.063Z,101820.34
2023-04-18T18:55:18.628Z,101822.03
2023-04-18T18:57:45.178Z,101832.59
2023-04-18T19:00:13.340Z,101839.63
2023-04-18T19:02:40.207Z,101830.66
2023-04-18T19:05:07.148Z,101835.91
2023-04-18T19:07:33.685Z,101835.81
2023-04-18T19:10:01.630Z,101836.56
2023-04-18T19:12:29.084Z,101839.13
2023-04-18T19:14:55.717Z,101852.34
2023-04-18T19:17:24.867Z,101834.50
2023-04-18T19:19:53.185Z,101841.44
2023-04-18T19:22:19.805Z,101849.25
2023-04-18T19:24:46.698Z,101849.16
2023-04-18T19:27:13.246Z,101864.06
2023-04-18T19:29:39.849Z,101858.66
2023-04-18T19:32:06.741Z,101851.44
2023-04-18T19:34:33.270Z,101861.03
2023-04-18T19:37:01.555Z,101859.09
2023-04-18T19:39:28.384Z,101853.78
2023-04-18T19:41:54.916Z,101856.44
2023-04-18T19:44:21.502Z,101859.09
2023-04-18T19:46:48.080Z,101864.50
2023-04-18T19:49:15.025Z,101860.09
2023-04-18T19:51:42.061Z,101867.13
2023-04-18T19:54:08.626Z,101860.88
2023-04-18T19:56:35.136Z,101858.25
2023-04-18T19:59:01.812Z,101865.25
2023-04-18T20:01:28.390Z,101864.34
2023-04-18T20:03:58.506Z,101865.19
2023-04-18T20:06:26.826Z,101877.50
2023-04-18T20:08:56.179Z,101865.91
2023-04-18T20:11:22.861Z,101871.97
2023-04-18T20:13:49.985Z,101878.94
2023-04-18T20:16:17.266Z,101876.22
2023-04-18T20:18:47.339Z,101879.66
2023-04-18T20:21:14.121Z,101874.31
2023-04-18T20:23:42.453Z,101870.66
2023-04-18T20:26:09.304Z,101878.47
2023-04-18T20:28:36.638Z,101872.97
2023-04-18T20:31:03.818Z,101884.28
2023-04-18T20:33:30.560Z,101876.13
2023-04-18T20:35:58.904Z,101881.31
2023-04-18T20:38:29.370Z,101882.06
2023-04-18T20:40:58.004Z,101881.91
2023-04-18T20:43:28.506Z,101856.28
2023-04-18T20:45:57.645Z,101878.22
2023-04-18T20:48:24.490Z,101876.34
2023-04-18T20:50:51.445Z,101872.75
2023-04-18T20:53:20.697Z,101885.00
2023-04-18T20:55:48.153Z,101878.75
2023-04-18T20:58:15.088Z,101889.31
2023-04-18T21:00:41.758Z,101880.47
2023-04-18T21:03:08.749Z,101880.44
2023-04-18T21:05:35.709Z,101887.47
2023-04-18T21:08:02.281Z,101882.94
2023-04-18T21:10:28.857Z,101885.50
2023-04-18T21:12:55.409Z,101881.91
2023-04-18T21:15:22.344Z,101880.97
2023-04-18T21:17:51.719Z,101880.88
2023-04-18T21:20:18.924Z,101878.16
2023-04-18T21:22:45.570Z,101887.78
2023-04-18T21:25:12.439Z,101891.22
2023-04-18T21:27:39.225Z,101888.53
2023-04-18T21:30:06.736Z,101898.16
2023-04-18T21:32:33.321Z,101897.22
2023-04-18T21:35:02.741Z,101887.38
2023-04-18T21:37:30.267Z,101886.41
2023-04-18T21:39:56.744Z,101881.06
2023-04-18T21:42:23.212Z,101886.25
2023-04-18T21:44:49.748Z,101894.06
2023-04-18T21:47:16.368Z,101884.25
2023-04-18T21:49:42.940Z,101884.19
2023-04-18T21:52:09.566Z,101895.56
2023-04-18T21:54:36.085Z,101890.19
2023-04-18T21:57:03.331Z,101893.66
2023-04-18T21:59:30.587Z,101893.56
2023-04-18T22:01:57.248Z,101889.09
2023-04-18T22:04:26.196Z,101889.97
2023-04-18T22:06:56.910Z,101881.06
2023-04-18T22:09:23.915Z,101885.41
2023-04-18T22:11:56.594Z,101886.22
2023-04-18T22:14:24.819Z,101878.22
2023-04-18T22:16:51.426Z,101874.69
2023-04-18T22:19:19.405Z,101884.31
2023-04-18T22:21:46.169Z,101879.84
2023-04-18T22:24:12.868Z,101879.84
2023-04-18T22:26:40.777Z,101877.16
2023-04-18T22:29:07.575Z,101876.34
2023-04-18T22:31:34.427Z,101877.16
2023-04-18T22:34:01.162Z,101883.25
2023-04-18T22:36:27.848Z,101881.44
2023-04-18T22:38:54.459Z,101880.50
2023-04-18T22:41:27.608Z,101890.16
2023-04-18T22:43:54.708Z,101880.34
2023-04-18T22:46:21.698Z,101884.69
2023-04-18T22:48:49.263Z,101881.09
2023-04-18T22:51:18.123Z,101874.84
2023-04-18T22:53:44.736Z,101879.19
2023-04-18T22:56:11.392Z,101882.63
2023-04-18T22:58:38.120Z,101883.38
2023-04-18T23:01:05.014Z,101885.03
2023-04-18T23:03:34.400Z,101876.94
2023-04-18T23:06:01.565Z,101888.28
2023-04-18T23:08:29.195Z,101885.47
2023-04-18T23:10:55.805Z,101883.63
2023-04-18T23:13:22.321Z,101884.41
2023-04-18T23:15:48.861Z,101881.72
2023-04-18T23:18:15.526Z,101880.81
2023-04-18T23:20:42.194Z,101876.38
2023-04-18T23:23:10.110Z,101875.41
2023-04-18T23:25:36.676Z,101875.31
2023-04-18T23:28:03.275Z,101881.28
2023-04-18T23:30:29.812Z,101872.25
2023-04-18T23:32:56.578Z,101878.22
2023-04-18T23:35:23.130Z,101880.72
2023-04-18T23:37:50.170Z,101882.28
2023-04-18T23:40:16.755Z,101882.97
2023-04-18T23:42:43.845Z,101882.47
2023-04-18T23:45:11.312Z,101876.75
2023-04-18T23:47:38.011Z,101870.16
2023-04-18T23:50:04.996Z,101872.38
2023-04-18T23:52:31.508Z,101872.06
2023-04-18T23:55:01.504Z,101876.09
2023-04-18T23:57:28.421Z,101873.28
2023-04-18T23:59:55.164Z,101856.34
